createdAt,value
2017-07-19T00:00:21.401Z,24.4
2017-07-19T00:01:01.793Z,24.52
2017-07-19T00:01:42.236Z,24.53
2017-07-19T00:02:22.724Z,24.49
2017-07-19T00:03:03.226Z,24.47
2017-07-19T00:03:43.739Z,24.4
2017-07-19T00:04:24.158Z,24.39
2017-07-19T00:05:04.622Z,24.39
2017-07-19T00:06:52.156Z,24.4
2017-07-19T00:07:32.623Z,24.4
2017-07-19T00:08:13.171Z,24.3
2017-07-19T00:08:53.632Z,24.35
2017-07-19T00:09:34.105Z,24.28
2017-07-19T00:10:14.587Z,24.35
2017-07-19T00:10:55.098Z,24.25
2017-07-19T00:11:35.576Z,24.22
2017-07-19T00:12:16.067Z,24.39
2017-07-19T00:12:56.579Z,24.39
2017-07-19T00:13:37.053Z,24.34
2017-07-19T00:14:17.548Z,24.3
2017-07-19T00:14:58.018Z,24.2
2017-07-19T00:15:38.483Z,24.18
2017-07-19T00:17:36.094Z,24.02
2017-07-19T00:18:16.582Z,23.97
2017-07-19T00:18:57.060Z,23.91
2017-07-19T00:19:37.588Z,23.78
2017-07-19T00:20:18.033Z,23.83
2017-07-19T00:20:58.519Z,23.83
2017-07-19T00:21:39.000Z,23.83
2017-07-19T00:22:19.471Z,23.73
2017-07-19T00:24:06.995Z,23.7
2017-07-19T00:24:47.475Z,23.83
2017-07-19T00:25:27.955Z,23.95
2017-07-19T00:26:08.431Z,23.91
2017-07-19T00:26:48.921Z,23.84
2017-07-19T00:27:29.410Z,23.78
2017-07-19T00:28:09.899Z,23.73
2017-07-19T00:28:50.393Z,23.83
2017-07-19T00:29:30.897Z,23.8
2017-07-19T00:30:11.384Z,23.79
2017-07-19T00:30:51.871Z,23.83
2017-07-19T00:31:32.335Z,23.85
2017-07-19T00:33:24.867Z,23.98
2017-07-19T00:34:05.356Z,24.12
2017-07-19T00:34:45.841Z,24.13
2017-07-19T00:35:26.355Z,24.12
2017-07-19T00:36:06.837Z,23.95
2017-07-19T00:36:47.323Z,23.79
2017-07-19T00:37:27.797Z,23.65
2017-07-19T00:38:08.299Z,23.69
2017-07-19T00:38:48.797Z,23.8
2017-07-19T00:39:29.312Z,23.83
2017-07-19T00:40:09.768Z,23.78
2017-07-19T00:40:50.266Z,23.88
2017-07-19T00:41:30.648Z,23.95
2017-07-19T00:42:11.151Z,23.94
2017-07-19T00:42:51.652Z,23.83
2017-07-19T00:45:04.310Z,23.75
2017-07-19T00:45:44.816Z,23.57
2017-07-19T00:46:25.307Z,23.57
2017-07-19T00:47:05.829Z,23.53
2017-07-19T00:47:46.278Z,23.51
2017-07-19T00:48:26.765Z,23.31
2017-07-19T00:50:24.390Z,23.19
2017-07-19T00:51:04.911Z,23.28
2017-07-19T00:51:45.405Z,23.35
2017-07-19T00:52:25.861Z,23.51
2017-07-19T00:53:06.304Z,23.46
2017-07-19T00:53:46.762Z,23.47
2017-07-19T00:54:27.233Z,23.32
2017-07-19T00:55:07.675Z,23.35
2017-07-19T00:55:48.143Z,23.33
2017-07-19T00:57:45.779Z,23.28
2017-07-19T00:58:26.265Z,23.25
2017-07-19T00:59:06.816Z,23.25
2017-07-19T00:59:47.257Z,23.22
2017-07-19T01:00:27.753Z,23.1
2017-07-19T01:01:08.217Z,22.95
2017-07-19T01:01:48.723Z,22.94
2017-07-19T01:02:29.142Z,22.9
2017-07-19T01:03:09.603Z,22.92
2017-07-19T01:04:46.950Z,22.94
2017-07-19T01:06:24.294Z,22.9
2017-07-19T01:07:04.748Z,22.97
2017-07-19T01:07:45.221Z,22.97
2017-07-19T01:08:25.688Z,23.13
2017-07-19T01:09:06.203Z,23.13
2017-07-19T01:10:53.646Z,23.15
2017-07-19T01:11:34.143Z,23.22
2017-07-19T01:12:14.639Z,23.15
2017-07-19T01:12:55.132Z,23.19
2017-07-19T01:13:35.607Z,23.22
2017-07-19T01:14:16.098Z,23.23
2017-07-19T01:14:56.565Z,23.25
2017-07-19T01:15:37.060Z,23.2
2017-07-19T01:16:17.506Z,23.17
2017-07-19T01:18:10.045Z,23.19
2017-07-19T01:18:50.545Z,23.27
2017-07-19T01:19:31.031Z,23.23
2017-07-19T01:20:11.471Z,23.19
2017-07-19T01:20:51.942Z,23.23
2017-07-19T01:21:32.433Z,23.23
2017-07-19T01:22:12.924Z,23.33
2017-07-19T01:22:53.428Z,23.27
2017-07-19T01:23:33.859Z,23.28
2017-07-19T01:24:14.359Z,23.22
2017-07-19T01:24:54.759Z,23.23
2017-07-19T01:25:35.250Z,23.27
2017-07-19T01:26:15.704Z,23.23
2017-07-19T01:26:56.140Z,23.25
2017-07-19T01:28:43.611Z,23.04
2017-07-19T01:29:24.142Z,22.92
2017-07-19T01:30:04.628Z,22.8
2017-07-19T01:30:45.065Z,22.73
2017-07-19T01:31:25.592Z,22.7
2017-07-19T01:32:06.023Z,22.68
2017-07-19T01:32:46.475Z,22.73
2017-07-19T01:33:26.909Z,22.79
2017-07-19T01:34:07.369Z,22.82
2017-07-19T01:34:47.877Z,22.83
2017-07-19T01:35:28.284Z,22.76
2017-07-19T01:36:08.815Z,22.72
2017-07-19T01:36:49.207Z,22.7
2017-07-19T01:38:26.586Z,22.88
2017-07-19T01:39:07.051Z,22.7
2017-07-19T01:39:47.459Z,22.64
2017-07-19T01:40:27.920Z,22.67
2017-07-19T01:41:08.363Z,22.57
2017-07-19T01:41:48.832Z,22.73
2017-07-19T01:42:29.315Z,22.8
2017-07-19T01:43:09.767Z,22.88
2017-07-19T01:43:50.244Z,22.91
2017-07-19T01:44:30.677Z,22.86
2017-07-19T01:45:11.131Z,22.79
2017-07-19T01:45:51.594Z,22.75
2017-07-19T01:46:32.060Z,22.7
2017-07-19T01:47:12.504Z,22.64
2017-07-19T01:47:52.956Z,22.62
2017-07-19T01:48:33.395Z,22.55
2017-07-19T01:49:13.871Z,22.65
2017-07-19T01:49:54.322Z,22.62
2017-07-19T01:50:34.794Z,22.62
2017-07-19T01:51:15.250Z,22.57
2017-07-19T01:53:12.901Z,22.65
2017-07-19T01:53:53.384Z,22.58
2017-07-19T01:54:33.855Z,22.43
2017-07-19T01:55:14.296Z,22.39
2017-07-19T01:55:54.838Z,22.27
2017-07-19T01:56:35.219Z,22.18
2017-07-19T01:57:15.671Z,22.12
2017-07-19T01:57:56.132Z,22
2017-07-19T01:59:48.747Z,22.03
2017-07-19T02:00:29.164Z,22.2
2017-07-19T02:01:09.644Z,22.02
2017-07-19T02:03:02.354Z,22.14
2017-07-19T02:03:42.812Z,22.17
2017-07-19T02:04:23.288Z,22.15
2017-07-19T02:05:03.762Z,22.21
2017-07-19T02:05:44.202Z,22.2
2017-07-19T02:06:24.643Z,22.12
2017-07-19T02:07:05.077Z,22.03
2017-07-19T02:07:45.532Z,21.98
2017-07-19T02:08:26.060Z,22
2017-07-19T02:09:06.485Z,22.02
2017-07-19T02:09:46.936Z,22
2017-07-19T02:10:27.397Z,21.98
2017-07-19T02:11:07.872Z,22.12
2017-07-19T02:11:48.303Z,22.15
2017-07-19T02:12:28.785Z,22.14
2017-07-19T02:13:09.264Z,22.14
2017-07-19T02:13:49.747Z,22.24
2017-07-19T02:14:30.239Z,22.25
2017-07-19T02:15:10.669Z,22.28
2017-07-19T02:15:51.114Z,22.2
2017-07-19T02:16:31.530Z,22.14
2017-07-19T02:17:12.018Z,22.05
2017-07-19T02:19:24.733Z,22.02
2017-07-19T02:20:05.212Z,21.98
2017-07-19T02:20:45.717Z,21.88
2017-07-19T02:21:26.187Z,21.84
2017-07-19T02:22:06.665Z,21.83
2017-07-19T02:22:47.104Z,21.94
2017-07-19T02:23:27.557Z,21.98
2017-07-19T02:24:08.067Z,21.92
2017-07-19T02:26:00.625Z,21.96
2017-07-19T02:26:41.095Z,22.02
2017-07-19T02:27:21.554Z,21.94
2017-07-19T02:28:02.025Z,21.84
2017-07-19T02:28:42.469Z,21.83
2017-07-19T02:29:22.932Z,21.84
2017-07-19T02:30:03.403Z,21.91
2017-07-19T02:30:43.879Z,21.82
2017-07-19T02:32:36.494Z,22
2017-07-19T02:33:16.940Z,22.03
2017-07-19T02:33:57.427Z,22.07
2017-07-19T02:34:37.887Z,22.14
2017-07-19T02:36:35.513Z,22.18
2017-07-19T02:37:16.007Z,22.22
2017-07-19T02:37:56.497Z,22.21
2017-07-19T02:38:36.986Z,22.3
2017-07-19T02:39:17.458Z,22.33
2017-07-19T02:39:57.956Z,22.3
2017-07-19T02:40:38.416Z,22.37
2017-07-19T02:41:18.867Z,22.31
2017-07-19T02:41:59.340Z,22.37
2017-07-19T02:42:39.778Z,22.39
2017-07-19T02:43:20.234Z,22.31
2017-07-19T02:44:00.685Z,22.25
2017-07-19T02:44:41.125Z,22.25
2017-07-19T02:45:21.578Z,22.24
2017-07-19T02:46:02.061Z,22.33
2017-07-19T02:46:42.522Z,22.33
2017-07-19T02:47:22.964Z,22.35
2017-07-19T02:48:03.446Z,22.39
2017-07-19T02:48:43.900Z,22.28
2017-07-19T02:49:24.374Z,22.25
2017-07-19T02:50:04.858Z,22.37
2017-07-19T02:50:45.359Z,22.33
2017-07-19T02:51:25.834Z,22.33
2017-07-19T02:52:06.314Z,22.35
2017-07-19T02:52:46.796Z,22.4
2017-07-19T02:53:27.216Z,22.4
2017-07-19T02:54:07.708Z,22.31
2017-07-19T02:54:48.162Z,22.28
2017-07-19T02:56:45.764Z,22.14
2017-07-19T02:57:26.266Z,22.15
2017-07-19T02:58:06.757Z,22.17
2017-07-19T02:58:47.207Z,22.27
2017-07-19T02:59:27.685Z,22.25
2017-07-19T03:00:08.122Z,22.14
2017-07-19T03:00:48.656Z,22.12
2017-07-19T03:01:29.110Z,22.02
2017-07-19T03:02:09.554Z,21.9
2017-07-19T03:02:50.026Z,21.86
2017-07-19T03:03:30.484Z,21.91
2017-07-19T03:04:10.929Z,21.84
2017-07-19T03:04:51.397Z,21.82
2017-07-19T03:05:31.844Z,21.74
2017-07-19T03:06:12.345Z,21.84
2017-07-19T03:06:52.777Z,21.71
2017-07-19T03:07:33.225Z,21.56
2017-07-19T03:08:13.741Z,21.58
2017-07-19T03:10:11.404Z,21.53
2017-07-19T03:10:51.799Z,21.47
2017-07-19T03:11:32.269Z,21.43
2017-07-19T03:13:19.795Z,21.44
2017-07-19T03:14:00.251Z,21.49
2017-07-19T03:14:40.739Z,21.54
2017-07-19T03:15:21.202Z,21.65
2017-07-19T03:16:01.712Z,21.62
2017-07-19T03:16:42.238Z,21.58
2017-07-19T03:17:22.721Z,21.58
2017-07-19T03:18:03.187Z,21.53
2017-07-19T03:18:43.674Z,21.53
2017-07-19T03:19:24.148Z,21.67
2017-07-19T03:20:04.635Z,21.67
2017-07-19T03:20:45.085Z,21.62
2017-07-19T03:22:37.601Z,21.52
2017-07-19T03:23:18.113Z,21.42
2017-07-19T03:23:58.564Z,21.49
2017-07-19T03:24:39.007Z,21.47
2017-07-19T03:25:19.480Z,21.52
2017-07-19T03:25:59.951Z,21.67
2017-07-19T03:26:40.398Z,21.59
2017-07-19T03:28:38.021Z,21.67
2017-07-19T03:29:18.468Z,21.67
2017-07-19T03:29:58.961Z,21.61
2017-07-19T03:30:39.439Z,21.67
2017-07-19T03:31:19.920Z,21.67
2017-07-19T03:32:00.472Z,21.64
2017-07-19T03:33:47.900Z,21.59
2017-07-19T03:34:28.390Z,21.75
2017-07-19T03:35:08.874Z,21.84
2017-07-19T03:35:49.354Z,21.83
2017-07-19T03:38:02.037Z,21.96
2017-07-19T03:38:42.503Z,21.9
2017-07-19T03:39:22.982Z,21.84
2017-07-19T03:40:03.462Z,21.96
2017-07-19T03:40:43.966Z,21.99
2017-07-19T03:41:24.435Z,22.06
2017-07-19T03:42:04.902Z,21.96
2017-07-19T03:42:45.356Z,22.02
2017-07-19T03:43:25.836Z,21.91
2017-07-19T03:44:06.295Z,21.9
2017-07-19T03:44:46.707Z,21.82
2017-07-19T03:46:39.241Z,21.65
2017-07-19T03:47:19.727Z,21.61
2017-07-19T03:48:00.231Z,21.62
2017-07-19T03:48:40.711Z,21.61
2017-07-19T03:49:21.205Z,21.59
2017-07-19T03:50:01.637Z,21.64
2017-07-19T03:50:42.088Z,21.61
2017-07-19T03:51:22.573Z,21.62
2017-07-19T03:52:03.023Z,21.65
2017-07-19T03:52:43.504Z,21.75
2017-07-19T03:54:56.297Z,21.84
2017-07-19T03:55:36.742Z,21.82
2017-07-19T03:56:17.222Z,21.9
2017-07-19T03:56:57.662Z,21.94
2017-07-19T03:57:38.127Z,21.91
2017-07-19T03:58:18.596Z,21.99
2017-07-19T03:58:59.038Z,21.99
2017-07-19T04:00:36.411Z,21.83
2017-07-19T04:01:16.882Z,21.82
2017-07-19T04:01:57.363Z,21.77
2017-07-19T04:03:44.816Z,21.71
2017-07-19T04:04:25.338Z,21.64
2017-07-19T04:05:05.814Z,21.65
2017-07-19T04:05:46.301Z,21.72
2017-07-19T04:06:26.808Z,21.65
2017-07-19T04:07:07.279Z,21.64
2017-07-19T04:07:47.766Z,21.61
2017-07-19T04:08:28.234Z,21.74
2017-07-19T04:09:08.693Z,21.72
2017-07-19T04:09:49.109Z,21.72
2017-07-19T04:10:29.566Z,21.62
2017-07-19T04:11:10.040Z,21.67
2017-07-19T04:11:50.460Z,21.65
2017-07-19T04:13:27.803Z,21.53
2017-07-19T04:14:08.277Z,21.53
2017-07-19T04:14:48.762Z,21.49
2017-07-19T04:15:29.219Z,21.58
2017-07-19T04:16:09.708Z,21.56
2017-07-19T04:16:50.111Z,21.49
2017-07-19T04:17:30.550Z,21.52
2017-07-19T04:18:11.026Z,21.38
2017-07-19T04:18:51.535Z,21.53
2017-07-19T04:19:31.958Z,21.53
2017-07-19T04:20:12.454Z,21.47
2017-07-19T04:21:49.937Z,21.53
2017-07-19T04:22:30.371Z,21.53
2017-07-19T04:23:10.795Z,21.56
2017-07-19T04:23:51.245Z,21.54
2017-07-19T04:24:31.718Z,21.38
2017-07-19T04:25:12.174Z,21.42
2017-07-19T04:25:52.689Z,21.43
2017-07-19T04:26:33.208Z,21.44
2017-07-19T04:27:13.678Z,21.46
2017-07-19T04:27:54.145Z,21.47
2017-07-19T04:28:34.599Z,21.43
2017-07-19T04:29:15.077Z,21.53
2017-07-19T04:29:55.546Z,21.58
2017-07-19T04:30:36.191Z,21.49
2017-07-19T04:32:33.865Z,21.58
2017-07-19T04:33:14.303Z,21.61
2017-07-19T04:33:54.767Z,21.65
2017-07-19T04:34:35.239Z,21.71
2017-07-19T04:35:15.690Z,21.88
2017-07-19T04:35:56.172Z,21.96
2017-07-19T04:37:43.674Z,21.92
2017-07-19T04:38:24.130Z,21.94
2017-07-19T04:39:04.596Z,22.02
2017-07-19T04:39:45.099Z,22.09
2017-07-19T04:40:25.580Z,22.14
2017-07-19T04:41:06.092Z,22.15
2017-07-19T04:41:46.528Z,22.18
2017-07-19T04:42:26.984Z,22.22
2017-07-19T04:43:07.419Z,22.24
2017-07-19T04:43:47.852Z,22.37
2017-07-19T04:44:28.330Z,22.25
2017-07-19T04:46:05.703Z,22.22
2017-07-19T04:46:46.202Z,22.27
2017-07-19T04:47:26.707Z,22.31
2017-07-19T04:48:07.157Z,22.39
2017-07-19T04:48:47.629Z,22.55
2017-07-19T04:50:40.162Z,22.8
2017-07-19T04:51:20.653Z,22.85
2017-07-19T04:52:01.167Z,22.88
2017-07-19T04:53:58.994Z,23.2
2017-07-19T04:54:39.301Z,23.27
2017-07-19T04:55:19.775Z,23.39
2017-07-19T04:57:17.484Z,23.66
2017-07-19T04:57:57.903Z,23.83
2017-07-19T04:59:58.537Z,24.12
2017-07-19T05:00:38.432Z,24.02
2017-07-19T05:01:18.871Z,24.1
2017-07-19T05:01:59.339Z,24.28
2017-07-19T05:02:39.785Z,24.34
2017-07-19T05:03:20.263Z,24.39
2017-07-19T05:04:00.739Z,24.43
2017-07-19T05:04:41.190Z,24.21
2017-07-19T05:06:33.792Z,23.97
2017-07-19T05:07:14.203Z,24.02
2017-07-19T05:07:54.675Z,23.94
2017-07-19T05:08:35.135Z,23.9
2017-07-19T05:09:15.585Z,23.87
2017-07-19T05:09:56.073Z,23.91
2017-07-19T05:10:36.542Z,23.98
2017-07-19T05:11:17.055Z,24.08
2017-07-19T05:11:57.503Z,24.12
2017-07-19T05:12:37.948Z,24.24
2017-07-19T05:13:18.407Z,24.25
2017-07-19T05:15:31.125Z,24.12
2017-07-19T05:16:11.637Z,23.9
2017-07-19T05:16:52.127Z,24.02
2017-07-19T05:17:32.546Z,23.91
2017-07-19T05:18:13.005Z,23.94
2017-07-19T05:18:53.459Z,23.87
2017-07-19T05:20:51.087Z,23.83
2017-07-19T05:21:31.541Z,23.79
2017-07-19T05:22:11.994Z,23.88
2017-07-19T05:22:52.448Z,23.9
2017-07-19T05:23:32.911Z,23.97
2017-07-19T05:24:13.368Z,24.05
2017-07-19T05:24:53.822Z,24.02
2017-07-19T05:26:31.232Z,24.21
2017-07-19T05:27:11.638Z,24.4
2017-07-19T05:27:52.124Z,24.42
2017-07-19T05:28:32.553Z,24.45
2017-07-19T05:29:12.978Z,24.69
2017-07-19T05:29:53.464Z,24.91
2017-07-19T05:30:33.944Z,25.03
2017-07-19T05:31:14.404Z,25.09
2017-07-19T05:31:54.884Z,24.98
2017-07-19T05:32:35.346Z,25.3
2017-07-19T05:33:15.798Z,25.36
2017-07-19T05:33:56.280Z,25.54
2017-07-19T05:35:54.110Z,25.83
2017-07-19T05:36:34.476Z,26.07
2017-07-19T05:37:14.921Z,26.1
2017-07-19T05:37:55.388Z,26.28
2017-07-19T05:38:35.812Z,26.39
2017-07-19T05:39:17.068Z,26.4
2017-07-19T05:39:57.559Z,26.52
2017-07-19T05:40:38.025Z,26.7
2017-07-19T05:41:18.459Z,26.72
2017-07-19T05:43:31.191Z,26.73
2017-07-19T05:44:11.650Z,26.65
2017-07-19T05:44:52.127Z,26.66
2017-07-19T05:46:49.874Z,26.91
2017-07-19T05:47:30.248Z,26.95
2017-07-19T05:48:10.702Z,27.12
2017-07-19T05:50:08.383Z,27.36
2017-07-19T05:50:48.841Z,27.36
2017-07-19T05:51:29.321Z,27.47
2017-07-19T05:52:09.803Z,27.51
2017-07-19T05:52:50.225Z,27.74
2017-07-19T05:53:30.675Z,27.59
2017-07-19T05:54:11.139Z,27.59
2017-07-19T05:54:51.571Z,27.44
2017-07-19T05:55:32.033Z,27.55
2017-07-19T05:56:12.497Z,27.57
2017-07-19T05:56:52.957Z,27.62
2017-07-19T05:57:33.426Z,27.82
2017-07-19T05:59:25.983Z,27.47
2017-07-19T06:00:06.434Z,27.81
2017-07-19T06:00:49.106Z,27.99
2017-07-19T06:01:28.287Z,28.14
2017-07-19T06:03:21.206Z,28.4
2017-07-19T06:04:01.373Z,28.36
2017-07-19T06:04:41.868Z,28.55
2017-07-19T06:06:34.550Z,28.67
2017-07-19T06:07:14.921Z,28.86
2017-07-19T06:07:55.407Z,28.89
2017-07-19T06:08:35.831Z,29.05
2017-07-19T06:09:16.285Z,28.74
2017-07-19T06:09:56.737Z,29.02
2017-07-19T06:10:37.172Z,29.12
2017-07-19T06:11:17.643Z,29.34
2017-07-19T06:11:58.130Z,29.27
2017-07-19T06:12:38.587Z,29.34
2017-07-19T06:13:19.112Z,29.36
2017-07-19T06:13:59.512Z,29.73
2017-07-19T06:14:39.951Z,29.76
2017-07-19T06:16:17.442Z,30.2
2017-07-19T06:16:57.807Z,30.23
2017-07-19T06:17:38.297Z,30.37
2017-07-19T06:18:18.814Z,30.38
2017-07-19T06:18:59.281Z,30.72
2017-07-19T06:19:39.752Z,30.75
2017-07-19T06:20:20.242Z,30.83
2017-07-19T06:21:00.737Z,30.72
2017-07-19T06:21:41.191Z,30.97
2017-07-19T06:22:21.650Z,30.89
2017-07-19T06:24:14.605Z,31.23
2017-07-19T06:24:55.008Z,30.95
2017-07-19T06:25:35.431Z,31.16
2017-07-19T06:26:15.874Z,31.51
2017-07-19T06:26:56.344Z,31.38
2017-07-19T06:27:36.785Z,31.43
2017-07-19T06:28:17.268Z,31.62
2017-07-19T06:28:57.711Z,31.78
2017-07-19T06:29:38.187Z,31.76
2017-07-19T06:30:18.611Z,31.7
2017-07-19T06:30:59.056Z,31.44
2017-07-19T06:31:39.518Z,31.46
2017-07-19T06:32:19.982Z,31.14
2017-07-19T06:33:00.413Z,31.34
2017-07-19T06:33:40.905Z,31.7
2017-07-19T06:34:21.389Z,31.78
2017-07-19T06:35:01.893Z,31.31
2017-07-19T06:35:42.360Z,31.51
2017-07-19T06:36:22.817Z,31.63
2017-07-19T06:37:03.270Z,31.81
2017-07-19T06:37:43.760Z,31.78
2017-07-19T06:38:24.180Z,31.68
2017-07-19T06:39:04.671Z,31.63
2017-07-19T06:39:45.178Z,31.73
2017-07-19T06:40:25.713Z,31.66
2017-07-19T06:41:06.170Z,31.84
2017-07-19T06:41:46.626Z,31.96
2017-07-19T06:42:27.134Z,31.8
2017-07-19T06:43:07.591Z,31.84
2017-07-19T06:43:48.085Z,31.8
2017-07-19T06:44:28.584Z,31.92
2017-07-19T06:45:09.077Z,31.54
2017-07-19T06:45:49.573Z,31.76
2017-07-19T06:46:30.096Z,32.04
2017-07-19T06:47:10.537Z,32.03
2017-07-19T06:47:50.983Z,31.91
2017-07-19T06:48:31.425Z,32
2017-07-19T06:50:23.965Z,31.75
2017-07-19T06:51:04.469Z,32.19
2017-07-19T06:51:44.979Z,32.3
2017-07-19T06:52:25.483Z,32.59
2017-07-19T06:53:05.978Z,32.63
2017-07-19T06:53:46.505Z,32.66
2017-07-19T06:54:26.979Z,33.09
2017-07-19T06:55:07.427Z,33.26
2017-07-19T06:55:47.900Z,33.59
2017-07-19T06:56:28.360Z,33.66
2017-07-19T06:57:08.814Z,33.84
2017-07-19T06:57:49.318Z,33.72
2017-07-19T06:58:29.796Z,33.95
2017-07-19T06:59:10.435Z,33.54
2017-07-19T06:59:51.104Z,33.6
2017-07-19T07:00:31.888Z,33.35
2017-07-19T07:01:13.454Z,33.71
2017-07-19T07:01:53.859Z,33.73
2017-07-19T07:02:34.345Z,34.21
2017-07-19T07:03:14.794Z,34.02
2017-07-19T07:03:55.247Z,34.15
2017-07-19T07:04:35.722Z,34.08
2017-07-19T07:05:16.361Z,34.25
2017-07-19T07:05:56.791Z,34.56
2017-07-19T07:06:37.264Z,34.66
2017-07-19T07:07:17.739Z,34.44
2017-07-19T07:07:58.210Z,33.97
2017-07-19T07:08:38.657Z,34.35
2017-07-19T07:09:19.121Z,34.49
2017-07-19T07:09:59.560Z,34.3
2017-07-19T07:10:40.051Z,33.93
2017-07-19T07:11:20.494Z,33.59
2017-07-19T07:12:00.959Z,33.5
2017-07-19T07:12:41.408Z,33.45
2017-07-19T07:13:21.886Z,33.53
2017-07-19T07:14:02.383Z,33.84
2017-07-19T07:14:42.865Z,33.51
2017-07-19T07:15:23.326Z,33.76
2017-07-19T07:16:03.831Z,33.88
2017-07-19T07:16:44.253Z,33.94
2017-07-19T07:17:24.721Z,33.78
2017-07-19T07:18:05.195Z,33.71
2017-07-19T07:18:45.690Z,33.63
2017-07-19T07:19:26.153Z,33.76
2017-07-19T07:20:06.640Z,33.84
2017-07-19T07:20:47.108Z,34.05
2017-07-19T07:21:28.315Z,33.87
2017-07-19T07:22:08.736Z,33.84
2017-07-19T07:22:49.203Z,33.57
2017-07-19T07:23:29.672Z,33.63
2017-07-19T07:24:10.156Z,34.06
2017-07-19T07:25:57.649Z,34.56
2017-07-19T07:26:38.129Z,34.96
2017-07-19T07:27:18.614Z,35.09
2017-07-19T07:27:59.120Z,35.31
2017-07-19T07:28:39.662Z,35.22
2017-07-19T07:29:20.148Z,35.06
2017-07-19T07:30:00.616Z,34.77
2017-07-19T07:30:41.092Z,35.02
2017-07-19T07:31:21.640Z,34.78
2017-07-19T07:32:02.161Z,34.97
2017-07-19T07:32:42.702Z,35.25
2017-07-19T07:34:55.527Z,34.65
2017-07-19T07:35:36.002Z,34.5
2017-07-19T07:36:16.493Z,34.78
2017-07-19T07:36:56.961Z,35.36
2017-07-19T07:37:37.435Z,35.21
2017-07-19T07:38:17.950Z,35.78
2017-07-19T07:38:58.437Z,35.85
2017-07-19T07:39:38.934Z,36.12
2017-07-19T07:40:19.400Z,36.46
2017-07-19T07:40:59.961Z,36.53
2017-07-19T07:41:40.502Z,36.03
2017-07-19T07:42:20.955Z,35.89
2017-07-19T07:43:01.424Z,35.82
2017-07-19T07:45:14.157Z,36.09
2017-07-19T07:45:54.642Z,35.99
2017-07-19T07:46:35.102Z,36.29
2017-07-19T07:47:15.630Z,36.57
2017-07-19T07:47:56.093Z,36.34
2017-07-19T07:48:36.563Z,35.96
2017-07-19T07:49:17.034Z,36.32
2017-07-19T07:49:57.538Z,36.2
2017-07-19T07:50:37.979Z,36.15
2017-07-19T07:52:35.644Z,36.9
2017-07-19T07:53:16.125Z,37.21
2017-07-19T07:53:56.687Z,37.29
2017-07-19T07:54:37.136Z,37.17
2017-07-19T07:56:49.958Z,37.85
2017-07-19T07:57:30.570Z,37.74
2017-07-19T07:58:11.186Z,37.85
2017-07-19T08:00:24.131Z,37.88
2017-07-19T08:01:04.634Z,38.15
2017-07-19T08:01:45.185Z,38.61
2017-07-19T08:02:25.730Z,38.95
2017-07-19T08:03:06.222Z,39.3
2017-07-19T08:03:46.720Z,39.4
2017-07-19T08:04:27.263Z,38.95
2017-07-19T08:05:07.772Z,38.65
2017-07-19T08:07:05.568Z,38.52
2017-07-19T08:07:45.951Z,37.94
2017-07-19T08:08:26.417Z,38.13
2017-07-19T08:09:06.894Z,38.61
2017-07-19T08:09:47.416Z,38.53
2017-07-19T08:10:27.974Z,38.6
2017-07-19T08:12:40.696Z,38.38
2017-07-19T08:13:21.177Z,37.51
2017-07-19T08:14:01.669Z,37.7
2017-07-19T08:14:42.137Z,37.91
2017-07-19T08:15:22.696Z,38.26
2017-07-19T08:16:03.206Z,38.31
2017-07-19T08:16:43.621Z,38.66
2017-07-19T08:17:24.097Z,38.3
2017-07-19T08:18:04.601Z,38.99
2017-07-19T08:20:02.237Z,39.73
2017-07-19T08:20:42.991Z,39.78
2017-07-19T08:21:23.707Z,40.2
2017-07-19T08:22:04.185Z,40.5
2017-07-19T08:22:44.687Z,40.94
2017-07-19T08:23:25.125Z,40.46
2017-07-19T08:24:05.569Z,40.13
2017-07-19T08:24:46.086Z,39.84
2017-07-19T08:25:26.568Z,38.87
2017-07-19T08:26:07.085Z,39.28
2017-07-19T08:26:47.574Z,39.35
2017-07-19T08:27:28.099Z,39.55
2017-07-19T08:28:09.432Z,39.75
2017-07-19T08:28:49.958Z,39.6
2017-07-19T08:29:30.484Z,38.79
2017-07-19T08:30:10.992Z,38.49
2017-07-19T08:32:03.658Z,39.04
2017-07-19T08:32:44.033Z,39.29
2017-07-19T08:33:24.505Z,38.78
2017-07-19T08:34:04.974Z,39.1
2017-07-19T08:34:45.561Z,39.32
2017-07-19T08:35:26.058Z,39.06
2017-07-19T08:36:06.647Z,39.29
2017-07-19T08:38:19.413Z,38.65
2017-07-19T08:38:59.931Z,38.28
2017-07-19T08:39:40.441Z,38.81
2017-07-19T08:40:20.963Z,39.23
2017-07-19T08:41:01.492Z,39.59
2017-07-19T08:42:54.028Z,39.97
2017-07-19T08:43:34.577Z,40.12
2017-07-19T08:44:15.097Z,40.12
2017-07-19T08:44:55.583Z,40.35
2017-07-19T08:45:36.092Z,40.27
2017-07-19T08:46:16.608Z,39.89
2017-07-19T08:46:57.212Z,40
2017-07-19T08:47:37.753Z,40.08
2017-07-19T08:48:18.285Z,39.51
2017-07-19T08:48:58.834Z,38.84
2017-07-19T08:49:39.331Z,38.72
2017-07-19T08:50:19.840Z,39.28
2017-07-19T08:51:00.316Z,39.47
2017-07-19T08:52:37.695Z,39.98
2017-07-19T08:53:18.193Z,40.46
2017-07-19T08:53:58.731Z,40.48
2017-07-19T08:54:39.873Z,40.92
2017-07-19T08:55:20.360Z,40.84
2017-07-19T08:56:00.907Z,40.69
2017-07-19T08:56:41.371Z,41.28
2017-07-19T08:57:21.873Z,41.7
2017-07-19T08:59:34.603Z,41.7
2017-07-19T09:00:15.210Z,41.78
2017-07-19T09:00:55.720Z,41.99
2017-07-19T09:01:36.159Z,41.73
2017-07-19T09:02:16.666Z,41.94
2017-07-19T09:02:57.176Z,41.96
2017-07-19T09:03:37.641Z,42.05
2017-07-19T09:04:18.127Z,41.35
2017-07-19T09:04:58.601Z,41.13
2017-07-19T09:05:39.038Z,41.44
2017-07-19T09:07:51.781Z,40.84
2017-07-19T09:08:32.308Z,40.99
2017-07-19T09:09:12.805Z,40.7
2017-07-19T09:09:53.314Z,40.92
2017-07-19T09:10:33.785Z,40.98
2017-07-19T09:11:14.276Z,41.01
2017-07-19T09:11:54.797Z,40.91
2017-07-19T09:12:35.449Z,40.25
2017-07-19T09:13:16.021Z,40.29
2017-07-19T09:13:56.496Z,40.42
2017-07-19T09:14:36.977Z,40.13
2017-07-19T09:15:17.489Z,40.18
2017-07-19T09:15:58.004Z,40.51
2017-07-19T09:16:38.449Z,41.16
2017-07-19T09:17:18.912Z,41.13
2017-07-19T09:17:59.424Z,40.77
2017-07-19T09:20:12.138Z,40.04
2017-07-19T09:20:52.663Z,40.67
2017-07-19T09:21:33.175Z,40.55
2017-07-19T09:22:13.805Z,40.99
2017-07-19T09:22:55.070Z,41.74
2017-07-19T09:23:35.638Z,41.66
2017-07-19T09:24:16.184Z,41.71
2017-07-19T09:24:56.613Z,41.91
2017-07-19T09:26:34.027Z,41.01
2017-07-19T09:27:14.526Z,41.87
2017-07-19T09:27:55.048Z,42.16
2017-07-19T09:28:35.536Z,42.47
2017-07-19T09:29:16.044Z,42.95
2017-07-19T09:31:08.609Z,43.28
2017-07-19T09:31:49.194Z,43.22
2017-07-19T09:32:29.733Z,43.45
2017-07-19T09:33:10.250Z,44.06
2017-07-19T09:33:50.717Z,44.29
2017-07-19T09:34:31.243Z,44.07
2017-07-19T09:35:11.772Z,43.86
2017-07-19T09:35:52.938Z,44.31
2017-07-19T09:36:33.409Z,44.25
2017-07-19T09:37:13.944Z,44.14
2017-07-19T09:37:54.488Z,43.88
2017-07-19T09:38:35.041Z,43.41
2017-07-19T09:39:15.597Z,43.27
2017-07-19T09:39:56.046Z,43.25
2017-07-19T09:41:53.694Z,44.05
2017-07-19T09:42:34.227Z,44.18
2017-07-19T09:43:14.714Z,43.81
2017-07-19T09:43:55.206Z,44.62
2017-07-19T09:44:35.840Z,45.26
2017-07-19T09:45:16.394Z,45.47
2017-07-19T09:45:56.925Z,45.32
2017-07-19T09:46:37.412Z,44.73
2017-07-19T09:47:17.919Z,44.02
2017-07-19T09:47:58.470Z,44.21
2017-07-19T09:48:38.943Z,44.58
2017-07-19T09:49:19.413Z,44.06
2017-07-19T09:49:59.917Z,42.42
2017-07-19T09:50:40.393Z,42.93
2017-07-19T09:51:20.875Z,42.93
2017-07-19T09:52:01.345Z,43.05
2017-07-19T09:52:41.844Z,43.57
2017-07-19T09:53:22.343Z,43.42
2017-07-19T09:55:15.014Z,43.46
2017-07-19T09:55:55.577Z,42.76
2017-07-19T09:56:36.084Z,42.5
2017-07-19T09:57:16.609Z,43.05
2017-07-19T09:57:57.115Z,43.37
2017-07-19T09:58:37.650Z,43.42
2017-07-19T09:59:18.300Z,43.6
2017-07-19T09:59:58.802Z,44.09
2017-07-19T10:00:39.315Z,44.09
2017-07-19T10:02:26.817Z,43.69
2017-07-19T10:03:07.347Z,43.46
2017-07-19T10:03:47.857Z,43.22
2017-07-19T10:04:28.366Z,42.66
2017-07-19T10:05:08.837Z,41.73
2017-07-19T10:05:49.348Z,41.62
2017-07-19T10:07:41.956Z,42.02
2017-07-19T10:08:22.427Z,42.18
2017-07-19T10:09:02.928Z,41.7
2017-07-19T10:10:50.424Z,41.33
2017-07-19T10:11:31.001Z,41.39
2017-07-19T10:12:11.583Z,41.32
2017-07-19T10:12:52.251Z,40.57
2017-07-19T10:13:32.830Z,40.8
2017-07-19T10:14:13.390Z,40.53
2017-07-19T10:14:53.982Z,40.42
2017-07-19T10:15:34.362Z,40.12
2017-07-19T10:16:14.868Z,40.29
2017-07-19T10:16:55.416Z,39.85
2017-07-19T10:17:35.905Z,40.08
2017-07-19T10:18:16.399Z,40.27
2017-07-19T10:18:56.889Z,40.48